Terminal Aerodrome Forecast
Issued by NWS

Home | Current Version | Previous Version | Text Only | Print | Product List | Glossary On
Versions: 1 2 3 4 5 6 7 8 9 10 11 12 13 14 15 16 17 18 19 20
903
FTUS42 KTBW 062344
TAFPIE
TAF
KPIE 062344Z 0700/0724 33011KT P6SM VCSH BKN008 BKN015
      TEMPO 0700/0702 5SM -SHRA BR
     FM070200 34013KT P6SM VCSH BKN007 BKN012 OVC020
     FM070900 33015G25KT P6SM SCT010 BKN015 BKN100
     FM071300 33017G26KT P6SM BKN025
     FM071600 32017G25KT P6SM FEW030=

USA.gov is the U.S. government's official web portal to all federal, state and local government web resources and services.